sensor_id;sensor_type;location;lat;lon;timestamp;P1;durP1;ratioP1;P2;durP2;ratioP2
14961;SDS011;56489;53.166;10.864;2022-08-19T00:01:22;9.00;;;8.13;;
14961;SDS011;56489;53.166;10.864;2022-08-19T00:03:54;9.77;;;8.77;;
14961;SDS011;56489;53.166;10.864;2022-08-19T00:06:22;9.60;;;8.30;;
14961;SDS011;56489;53.166;10.864;2022-08-19T00:08:49;11.55;;;10.10;;
14961;SDS011;56489;53.166;10.864;2022-08-19T00:11:17;10.95;;;9.52;;
14961;SDS011;56489;53.166;10.864;2022-08-19T00:13:51;11.70;;;10.52;;
14961;SDS011;56489;53.166;10.864;2022-08-19T00:16:18;11.30;;;9.63;;
14961;SDS011;56489;53.166;10.864;2022-08-19T00:18:52;11.68;;;9.70;;
14961;SDS011;56489;53.166;10.864;2022-08-19T00:21:19;11.13;;;9.82;;
14961;SDS011;56489;53.166;10.864;2022-08-19T00:23:46;11.98;;;10.55;;
14961;SDS011;56489;53.166;10.864;2022-08-19T00:26:13;9.90;;;9.00;;
14961;SDS011;56489;53.166;10.864;2022-08-19T00:28:40;10.30;;;9.30;;
14961;SDS011;56489;53.166;10.864;2022-08-19T00:31:08;10.85;;;9.75;;
14961;SDS011;56489;53.166;10.864;2022-08-19T00:33:35;11.90;;;10.70;;
14961;SDS011;56489;53.166;10.864;2022-08-19T00:36:03;12.20;;;10.50;;
14961;SDS011;56489;53.166;10.864;2022-08-19T00:38:33;11.27;;;10.18;;
14961;SDS011;56489;53.166;10.864;2022-08-19T00:41:03;11.45;;;9.38;;
14961;SDS011;56489;53.166;10.864;2022-08-19T00:43:32;10.05;;;9.05;;
14961;SDS011;56489;53.166;10.864;2022-08-19T00:45:59;10.15;;;9.18;;
14961;SDS011;56489;53.166;10.864;2022-08-19T00:48:27;9.07;;;8.18;;
14961;SDS011;56489;53.166;10.864;2022-08-19T00:50:54;10.20;;;9.30;;
14961;SDS011;56489;53.166;10.864;2022-08-19T00:53:22;10.13;;;9.18;;
14961;SDS011;56489;53.166;10.864;2022-08-19T00:55:52;10.45;;;9.35;;
14961;SDS011;56489;53.166;10.864;2022-08-19T00:58:22;12.18;;;8.75;;
14961;SDS011;56489;53.166;10.864;2022-08-19T01:00:53;10.50;;;9.43;;
14961;SDS011;56489;53.166;10.864;2022-08-19T01:03:20;10.88;;;9.43;;
14961;SDS011;56489;53.166;10.864;2022-08-19T01:05:48;10.43;;;9.38;;
14961;SDS011;56489;53.166;10.864;2022-08-19T01:08:17;10.35;;;9.32;;
14961;SDS011;56489;53.166;10.864;2022-08-19T01:10:46;10.95;;;9.85;;
14961;SDS011;56489;53.166;10.864;2022-08-19T01:13:20;12.27;;;10.23;;
14961;SDS011;56489;53.166;10.864;2022-08-19T01:15:54;11.75;;;9.60;;
14961;SDS011;56489;53.166;10.864;2022-08-19T01:18:23;11.70;;;10.05;;
14961;SDS011;56489;53.166;10.864;2022-08-19T01:20:51;11.07;;;9.70;;
14961;SDS011;56489;53.166;10.864;2022-08-19T01:23:20;11.30;;;9.95;;
14961;SDS011;56489;53.166;10.864;2022-08-19T01:25:48;13.88;;;9.63;;
14961;SDS011;56489;53.166;10.864;2022-08-19T01:28:21;13.70;;;10.38;;
14961;SDS011;56489;53.166;10.864;2022-08-19T01:30:59;11.85;;;9.75;;
14961;SDS011;56489;53.166;10.864;2022-08-19T01:33:32;10.10;;;8.75;;
14961;SDS011;56489;53.166;10.864;2022-08-19T01:36:03;12.05;;;9.55;;
14961;SDS011;56489;53.166;10.864;2022-08-19T01:38:38;11.63;;;10.52;;
14961;SDS011;56489;53.166;10.864;2022-08-19T01:41:10;11.57;;;10.30;;
14961;SDS011;56489;53.166;10.864;2022-08-19T01:43:37;12.65;;;11.35;;
14961;SDS011;56489;53.166;10.864;2022-08-19T01:46:24;15.52;;;12.13;;
14961;SDS011;56489;53.166;10.864;2022-08-19T01:48:51;12.77;;;10.15;;
14961;SDS011;56489;53.166;10.864;2022-08-19T01:51:17;12.25;;;10.60;;
14961;SDS011;56489;53.166;10.864;2022-08-19T01:53:47;12.00;;;10.60;;
14961;SDS011;56489;53.166;10.864;2022-08-19T01:56:16;12.23;;;10.93;;
14961;SDS011;56489;53.166;10.864;2022-08-19T01:58:49;14.50;;;12.00;;
14961;SDS011;56489;53.166;10.864;2022-08-19T02:01:19;12.88;;;11.63;;
14961;SDS011;56489;53.166;10.864;2022-08-19T02:03:46;12.50;;;10.63;;
14961;SDS011;56489;53.166;10.864;2022-08-19T02:06:12;12.40;;;10.95;;
14961;SDS011;56489;53.166;10.864;2022-08-19T02:08:39;13.75;;;12.05;;
14961;SDS011;56489;53.166;10.864;2022-08-19T02:11:06;15.25;;;10.63;;
14961;SDS011;56489;53.166;10.864;2022-08-19T02:13:33;13.60;;;11.57;;
14961;SDS011;56489;53.166;10.864;2022-08-19T02:16:00;15.75;;;11.65;;
14961;SDS011;56489;53.166;10.864;2022-08-19T02:18:29;13.98;;;11.75;;
14961;SDS011;56489;53.166;10.864;2022-08-19T02:20:56;15.18;;;12.32;;
14961;SDS011;56489;53.166;10.864;2022-08-19T02:23:22;15.30;;;12.18;;
14961;SDS011;56489;53.166;10.864;2022-08-19T02:25:49;13.27;;;10.82;;
14961;SDS011;56489;53.166;10.864;2022-08-19T02:28:17;15.10;;;12.00;;
14961;SDS011;56489;53.166;10.864;2022-08-19T02:30:44;15.23;;;13.15;;
14961;SDS011;56489;53.166;10.864;2022-08-19T02:33:12;19.52;;;14.18;;
14961;SDS011;56489;53.166;10.864;2022-08-19T02:35:45;17.50;;;12.98;;
14961;SDS011;56489;53.166;10.864;2022-08-19T02:38:13;16.70;;;13.98;;
14961;SDS011;56489;53.166;10.864;2022-08-19T02:40:53;15.88;;;12.98;;
14961;SDS011;56489;53.166;10.864;2022-08-19T02:43:22;16.63;;;12.95;;
14961;SDS011;56489;53.166;10.864;2022-08-19T02:45:49;13.52;;;11.93;;
14961;SDS011;56489;53.166;10.864;2022-08-19T02:48:18;12.65;;;10.80;;
14961;SDS011;56489;53.166;10.864;2022-08-19T02:50:47;15.30;;;11.88;;
14961;SDS011;56489;53.166;10.864;2022-08-19T02:53:23;14.02;;;12.20;;
14961;SDS011;56489;53.166;10.864;2022-08-19T02:55:52;14.75;;;12.32;;
14961;SDS011;56489;53.166;10.864;2022-08-19T02:58:19;15.35;;;13.32;;
14961;SDS011;56489;53.166;10.864;2022-08-19T03:00:49;13.98;;;12.35;;
14961;SDS011;56489;53.166;10.864;2022-08-19T03:03:17;14.25;;;12.18;;
14961;SDS011;56489;53.166;10.864;2022-08-19T03:05:45;15.43;;;12.82;;
14961;SDS011;56489;53.166;10.864;2022-08-19T03:08:22;12.65;;;10.75;;
14961;SDS011;56489;53.166;10.864;2022-08-19T03:10:50;14.68;;;11.95;;
14961;SDS011;56489;53.166;10.864;2022-08-19T03:13:18;14.93;;;12.13;;
14961;SDS011;56489;53.166;10.864;2022-08-19T03:15:45;16.23;;;13.68;;
14961;SDS011;56489;53.166;10.864;2022-08-19T03:18:13;15.70;;;12.60;;
14961;SDS011;56489;53.166;10.864;2022-08-19T03:20:43;13.38;;;11.88;;
14961;SDS011;56489;53.166;10.864;2022-08-19T03:23:16;14.23;;;12.10;;
14961;SDS011;56489;53.166;10.864;2022-08-19T03:25:44;18.17;;;13.43;;
14961;SDS011;56489;53.166;10.864;2022-08-19T03:28:35;12.65;;;11.32;;
14961;SDS011;56489;53.166;10.864;2022-08-19T03:31:04;12.93;;;11.00;;
14961;SDS011;56489;53.166;10.864;2022-08-19T03:33:54;14.38;;;11.30;;
14961;SDS011;56489;53.166;10.864;2022-08-19T03:36:22;15.13;;;11.48;;
14961;SDS011;56489;53.166;10.864;2022-08-19T03:38:56;13.98;;;11.77;;
14961;SDS011;56489;53.166;10.864;2022-08-19T03:41:27;15.73;;;11.73;;
14961;SDS011;56489;53.166;10.864;2022-08-19T03:44:11;16.77;;;12.93;;
14961;SDS011;56489;53.166;10.864;2022-08-19T03:46:44;15.68;;;12.35;;
14961;SDS011;56489;53.166;10.864;2022-08-19T03:49:15;13.15;;;11.60;;
14961;SDS011;56489;53.166;10.864;2022-08-19T03:51:44;14.20;;;12.68;;
14961;SDS011;56489;53.166;10.864;2022-08-19T03:54:13;15.13;;;11.93;;
14961;SDS011;56489;53.166;10.864;2022-08-19T03:56:41;13.05;;;10.98;;
14961;SDS011;56489;53.166;10.864;2022-08-19T03:59:10;14.93;;;12.43;;
14961;SDS011;56489;53.166;10.864;2022-08-19T04:01:39;14.75;;;13.20;;
14961;SDS011;56489;53.166;10.864;2022-08-19T04:04:07;13.75;;;11.45;;
14961;SDS011;56489;53.166;10.864;2022-08-19T04:06:35;12.13;;;10.65;;
14961;SDS011;56489;53.166;10.864;2022-08-19T04:09:06;13.35;;;11.95;;
14961;SDS011;56489;53.166;10.864;2022-08-19T04:11:37;15.95;;;12.32;;
14961;SDS011;56489;53.166;10.864;2022-08-19T04:14:15;16.25;;;13.00;;
14961;SDS011;56489;53.166;10.864;2022-08-19T04:16:44;13.63;;;11.95;;
14961;SDS011;56489;53.166;10.864;2022-08-19T04:19:12;15.50;;;11.85;;
14961;SDS011;56489;53.166;10.864;2022-08-19T04:21:40;14.75;;;12.85;;
14961;SDS011;56489;53.166;10.864;2022-08-19T04:24:11;16.33;;;13.23;;
14961;SDS011;56489;53.166;10.864;2022-08-19T04:26:39;13.80;;;10.98;;
14961;SDS011;56489;53.166;10.864;2022-08-19T04:29:09;15.05;;;11.65;;
14961;SDS011;56489;53.166;10.864;2022-08-19T04:31:38;15.05;;;12.60;;
14961;SDS011;56489;53.166;10.864;2022-08-19T04:34:07;14.30;;;12.32;;
14961;SDS011;56489;53.166;10.864;2022-08-19T04:36:39;14.32;;;12.07;;
14961;SDS011;56489;53.166;10.864;2022-08-19T04:39:08;17.27;;;12.93;;
14961;SDS011;56489;53.166;10.864;2022-08-19T04:41:37;17.73;;;13.95;;
14961;SDS011;56489;53.166;10.864;2022-08-19T04:44:22;17.52;;;13.70;;
14961;SDS011;56489;53.166;10.864;2022-08-19T04:46:49;18.63;;;13.80;;
14961;SDS011;56489;53.166;10.864;2022-08-19T04:49:21;19.05;;;13.18;;
14961;SDS011;56489;53.166;10.864;2022-08-19T04:51:49;19.65;;;13.73;;
14961;SDS011;56489;53.166;10.864;2022-08-19T04:54:18;15.20;;;12.82;;
14961;SDS011;56489;53.166;10.864;2022-08-19T04:57:04;20.60;;;15.02;;
14961;SDS011;56489;53.166;10.864;2022-08-19T04:59:34;17.85;;;13.02;;
14961;SDS011;56489;53.166;10.864;2022-08-19T05:02:01;17.92;;;14.15;;
14961;SDS011;56489;53.166;10.864;2022-08-19T05:04:29;19.55;;;15.02;;
14961;SDS011;56489;53.166;10.864;2022-08-19T05:06:58;21.58;;;15.88;;
14961;SDS011;56489;53.166;10.864;2022-08-19T05:09:27;20.50;;;15.20;;
14961;SDS011;56489;53.166;10.864;2022-08-19T05:12:14;19.30;;;13.98;;
14961;SDS011;56489;53.166;10.864;2022-08-19T05:14:41;16.17;;;13.43;;
14961;SDS011;56489;53.166;10.864;2022-08-19T05:17:08;16.30;;;13.32;;
14961;SDS011;56489;53.166;10.864;2022-08-19T05:19:53;16.95;;;14.80;;
14961;SDS011;56489;53.166;10.864;2022-08-19T05:22:39;16.98;;;14.68;;
14961;SDS011;56489;53.166;10.864;2022-08-19T05:25:11;17.55;;;13.93;;
14961;SDS011;56489;53.166;10.864;2022-08-19T05:27:40;22.05;;;15.88;;
14961;SDS011;56489;53.166;10.864;2022-08-19T05:30:08;18.02;;;14.25;;
14961;SDS011;56489;53.166;10.864;2022-08-19T05:32:35;18.90;;;14.52;;
14961;SDS011;56489;53.166;10.864;2022-08-19T05:35:02;17.58;;;13.27;;
14961;SDS011;56489;53.166;10.864;2022-08-19T05:37:29;19.90;;;14.27;;
14961;SDS011;56489;53.166;10.864;2022-08-19T05:39:56;24.77;;;17.20;;
14961;SDS011;56489;53.166;10.864;2022-08-19T05:42:23;23.23;;;16.92;;
14961;SDS011;56489;53.166;10.864;2022-08-19T05:44:50;20.88;;;16.05;;
14961;SDS011;56489;53.166;10.864;2022-08-19T05:47:17;19.80;;;15.10;;
14961;SDS011;56489;53.166;10.864;2022-08-19T05:49:47;19.77;;;14.48;;
14961;SDS011;56489;53.166;10.864;2022-08-19T05:52:16;21.73;;;16.83;;
14961;SDS011;56489;53.166;10.864;2022-08-19T05:54:44;17.02;;;14.88;;
14961;SDS011;56489;53.166;10.864;2022-08-19T05:57:16;20.42;;;15.48;;
14961;SDS011;56489;53.166;10.864;2022-08-19T05:59:44;23.33;;;17.88;;
14961;SDS011;56489;53.166;10.864;2022-08-19T06:02:24;20.17;;;15.73;;
14961;SDS011;56489;53.166;10.864;2022-08-19T06:04:51;21.55;;;16.25;;
14961;SDS011;56489;53.166;10.864;2022-08-19T06:07:18;21.40;;;15.70;;
14961;SDS011;56489;53.166;10.864;2022-08-19T06:09:45;24.00;;;18.08;;
14961;SDS011;56489;53.166;10.864;2022-08-19T06:12:26;20.63;;;15.90;;
14961;SDS011;56489;53.166;10.864;2022-08-19T06:14:59;22.42;;;17.50;;
14961;SDS011;56489;53.166;10.864;2022-08-19T06:17:30;22.67;;;16.42;;
14961;SDS011;56489;53.166;10.864;2022-08-19T06:19:58;24.10;;;18.55;;
14961;SDS011;56489;53.166;10.864;2022-08-19T06:22:25;20.45;;;15.65;;
14961;SDS011;56489;53.166;10.864;2022-08-19T06:24:53;22.70;;;16.80;;
14961;SDS011;56489;53.166;10.864;2022-08-19T06:27:20;19.52;;;15.63;;
14961;SDS011;56489;53.166;10.864;2022-08-19T06:29:47;22.02;;;17.83;;
14961;SDS011;56489;53.166;10.864;2022-08-19T06:32:14;19.17;;;15.20;;
14961;SDS011;56489;53.166;10.864;2022-08-19T06:34:42;18.85;;;15.15;;
14961;SDS011;56489;53.166;10.864;2022-08-19T06:37:09;20.98;;;15.27;;
14961;SDS011;56489;53.166;10.864;2022-08-19T06:39:37;21.85;;;16.17;;
14961;SDS011;56489;53.166;10.864;2022-08-19T06:42:06;21.48;;;16.58;;
14961;SDS011;56489;53.166;10.864;2022-08-19T06:44:36;21.35;;;16.35;;
14961;SDS011;56489;53.166;10.864;2022-08-19T06:47:09;18.48;;;14.85;;
14961;SDS011;56489;53.166;10.864;2022-08-19T06:49:48;18.40;;;15.57;;
14961;SDS011;56489;53.166;10.864;2022-08-19T06:52:15;17.38;;;15.45;;
14961;SDS011;56489;53.166;10.864;2022-08-19T06:54:42;18.95;;;14.77;;
14961;SDS011;56489;53.166;10.864;2022-08-19T06:57:21;19.67;;;15.68;;
14961;SDS011;56489;53.166;10.864;2022-08-19T06:59:49;22.05;;;17.13;;
14961;SDS011;56489;53.166;10.864;2022-08-19T07:02:15;18.58;;;15.07;;
14961;SDS011;56489;53.166;10.864;2022-08-19T07:04:43;19.40;;;15.52;;
14961;SDS011;56489;53.166;10.864;2022-08-19T07:07:11;19.67;;;14.73;;
14961;SDS011;56489;53.166;10.864;2022-08-19T07:09:46;16.02;;;13.27;;
14961;SDS011;56489;53.166;10.864;2022-08-19T07:12:23;21.10;;;14.95;;
14961;SDS011;56489;53.166;10.864;2022-08-19T07:14:51;15.93;;;13.65;;
14961;SDS011;56489;53.166;10.864;2022-08-19T07:17:19;18.63;;;14.27;;
14961;SDS011;56489;53.166;10.864;2022-08-19T07:19:46;18.73;;;14.80;;
14961;SDS011;56489;53.166;10.864;2022-08-19T07:22:14;20.65;;;14.70;;
14961;SDS011;56489;53.166;10.864;2022-08-19T07:24:42;20.42;;;15.73;;
14961;SDS011;56489;53.166;10.864;2022-08-19T07:27:17;19.90;;;16.05;;
14961;SDS011;56489;53.166;10.864;2022-08-19T07:29:50;17.75;;;14.43;;
14961;SDS011;56489;53.166;10.864;2022-08-19T07:32:22;20.00;;;13.57;;
14961;SDS011;56489;53.166;10.864;2022-08-19T07:34:51;17.52;;;13.77;;
14961;SDS011;56489;53.166;10.864;2022-08-19T07:37:18;19.20;;;13.93;;
14961;SDS011;56489;53.166;10.864;2022-08-19T07:39:45;19.63;;;14.00;;
14961;SDS011;56489;53.166;10.864;2022-08-19T07:42:11;15.52;;;13.15;;
14961;SDS011;56489;53.166;10.864;2022-08-19T07:44:40;15.18;;;11.88;;
14961;SDS011;56489;53.166;10.864;2022-08-19T07:47:07;15.13;;;12.05;;
14961;SDS011;56489;53.166;10.864;2022-08-19T07:49:53;16.55;;;13.70;;
14961;SDS011;56489;53.166;10.864;2022-08-19T07:52:20;14.48;;;11.90;;
14961;SDS011;56489;53.166;10.864;2022-08-19T07:54:47;13.80;;;11.32;;
14961;SDS011;56489;53.166;10.864;2022-08-19T07:57:14;12.73;;;11.43;;
14961;SDS011;56489;53.166;10.864;2022-08-19T07:59:41;12.88;;;11.20;;
14961;SDS011;56489;53.166;10.864;2022-08-19T08:02:08;12.45;;;10.93;;
14961;SDS011;56489;53.166;10.864;2022-08-19T08:04:35;14.07;;;12.18;;
14961;SDS011;56489;53.166;10.864;2022-08-19T08:07:20;15.20;;;12.05;;
14961;SDS011;56489;53.166;10.864;2022-08-19T08:10:11;15.02;;;11.88;;
14961;SDS011;56489;53.166;10.864;2022-08-19T08:12:46;12.45;;;11.25;;
14961;SDS011;56489;53.166;10.864;2022-08-19T08:15:33;13.70;;;11.07;;
14961;SDS011;56489;53.166;10.864;2022-08-19T08:18:07;13.85;;;11.68;;
14961;SDS011;56489;53.166;10.864;2022-08-19T08:20:34;13.20;;;10.88;;
14961;SDS011;56489;53.166;10.864;2022-08-19T08:23:01;12.52;;;10.13;;
14961;SDS011;56489;53.166;10.864;2022-08-19T08:25:46;14.75;;;11.90;;
14961;SDS011;56489;53.166;10.864;2022-08-19T08:28:15;12.65;;;10.23;;
14961;SDS011;56489;53.166;10.864;2022-08-19T08:30:43;12.32;;;10.95;;
14961;SDS011;56489;53.166;10.864;2022-08-19T08:33:11;13.30;;;10.82;;
14961;SDS011;56489;53.166;10.864;2022-08-19T08:35:39;14.02;;;11.95;;
14961;SDS011;56489;53.166;10.864;2022-08-19T08:38:08;16.60;;;12.10;;
14961;SDS011;56489;53.166;10.864;2022-08-19T08:40:44;14.10;;;11.32;;
14961;SDS011;56489;53.166;10.864;2022-08-19T08:43:36;18.73;;;13.38;;
14961;SDS011;56489;53.166;10.864;2022-08-19T08:46:55;15.52;;;12.48;;
14961;SDS011;56489;53.166;10.864;2022-08-19T08:49:04;14.40;;;12.48;;
14961;SDS011;56489;53.166;10.864;2022-08-19T08:51:57;14.65;;;12.25;;
14961;SDS011;56489;53.166;10.864;2022-08-19T08:54:39;14.75;;;11.38;;
14961;SDS011;56489;53.166;10.864;2022-08-19T08:57:27;12.43;;;10.30;;
14961;SDS011;56489;53.166;10.864;2022-08-19T09:00:35;12.20;;;10.25;;
14961;SDS011;56489;53.166;10.864;2022-08-19T09:03:06;16.83;;;12.70;;
14961;SDS011;56489;53.166;10.864;2022-08-19T09:06:07;14.30;;;12.32;;
14961;SDS011;56489;53.166;10.864;2022-08-19T09:12:00;15.63;;;11.38;;
14961;SDS011;56489;53.166;10.864;2022-08-19T09:14:41;14.20;;;11.55;;
14961;SDS011;56489;53.166;10.864;2022-08-19T09:17:18;14.75;;;11.25;;
14961;SDS011;56489;53.166;10.864;2022-08-19T09:20:32;18.58;;;13.15;;
14961;SDS011;56489;53.166;10.864;2022-08-19T09:22:37;15.93;;;12.40;;
14961;SDS011;56489;53.166;10.864;2022-08-19T09:25:05;16.45;;;13.65;;
14961;SDS011;56489;53.166;10.864;2022-08-19T09:27:35;19.35;;;15.18;;
14961;SDS011;56489;53.166;10.864;2022-08-19T09:30:10;19.92;;;14.77;;
14961;SDS011;56489;53.166;10.864;2022-08-19T09:32:41;17.02;;;12.52;;
14961;SDS011;56489;53.166;10.864;2022-08-19T09:35:08;20.23;;;14.15;;
14961;SDS011;56489;53.166;10.864;2022-08-19T09:37:37;23.73;;;15.73;;
14961;SDS011;56489;53.166;10.864;2022-08-19T09:40:05;21.77;;;15.23;;
14961;SDS011;56489;53.166;10.864;2022-08-19T09:42:34;21.20;;;15.82;;
14961;SDS011;56489;53.166;10.864;2022-08-19T09:45:01;23.25;;;18.02;;
14961;SDS011;56489;53.166;10.864;2022-08-19T09:47:31;21.92;;;14.82;;
14961;SDS011;56489;53.166;10.864;2022-08-19T09:49:59;23.00;;;16.80;;
14961;SDS011;56489;53.166;10.864;2022-08-19T09:52:25;22.23;;;16.17;;
14961;SDS011;56489;53.166;10.864;2022-08-19T09:54:58;22.77;;;17.42;;
14961;SDS011;56489;53.166;10.864;2022-08-19T09:57:25;26.38;;;17.88;;
14961;SDS011;56489;53.166;10.864;2022-08-19T09:59:51;19.80;;;14.98;;
14961;SDS011;56489;53.166;10.864;2022-08-19T10:02:19;21.73;;;17.33;;
14961;SDS011;56489;53.166;10.864;2022-08-19T10:04:47;25.38;;;18.00;;
14961;SDS011;56489;53.166;10.864;2022-08-19T10:07:33;25.88;;;18.58;;
14961;SDS011;56489;53.166;10.864;2022-08-19T10:10:03;27.63;;;19.25;;
14961;SDS011;56489;53.166;10.864;2022-08-19T10:12:33;25.80;;;17.08;;
14961;SDS011;56489;53.166;10.864;2022-08-19T10:15:00;26.08;;;18.90;;
14961;SDS011;56489;53.166;10.864;2022-08-19T10:17:27;26.85;;;18.80;;
14961;SDS011;56489;53.166;10.864;2022-08-19T10:19:58;26.92;;;18.25;;
14961;SDS011;56489;53.166;10.864;2022-08-19T10:22:25;22.30;;;16.35;;
14961;SDS011;56489;53.166;10.864;2022-08-19T10:24:52;27.20;;;17.42;;
14961;SDS011;56489;53.166;10.864;2022-08-19T10:27:19;28.25;;;19.05;;
14961;SDS011;56489;53.166;10.864;2022-08-19T10:29:46;23.13;;;17.33;;
14961;SDS011;56489;53.166;10.864;2022-08-19T10:32:13;28.60;;;18.33;;
14961;SDS011;56489;53.166;10.864;2022-08-19T10:34:41;27.20;;;18.77;;
14961;SDS011;56489;53.166;10.864;2022-08-19T10:37:14;30.15;;;20.70;;
14961;SDS011;56489;53.166;10.864;2022-08-19T10:39:49;31.20;;;21.88;;
14961;SDS011;56489;53.166;10.864;2022-08-19T10:42:15;26.52;;;21.02;;
14961;SDS011;56489;53.166;10.864;2022-08-19T10:44:44;26.70;;;19.38;;
14961;SDS011;56489;53.166;10.864;2022-08-19T10:47:12;23.85;;;17.25;;
14961;SDS011;56489;53.166;10.864;2022-08-19T10:49:51;36.08;;;21.95;;
14961;SDS011;56489;53.166;10.864;2022-08-19T10:52:41;36.80;;;24.73;;
14961;SDS011;56489;53.166;10.864;2022-08-19T10:55:15;33.45;;;22.33;;
14961;SDS011;56489;53.166;10.864;2022-08-19T10:58:03;30.08;;;20.98;;
14961;SDS011;56489;53.166;10.864;2022-08-19T11:00:30;37.08;;;25.08;;
14961;SDS011;56489;53.166;10.864;2022-08-19T11:02:57;34.83;;;24.00;;
14961;SDS011;56489;53.166;10.864;2022-08-19T11:05:24;34.65;;;23.33;;
14961;SDS011;56489;53.166;10.864;2022-08-19T11:07:51;31.88;;;22.58;;
14961;SDS011;56489;53.166;10.864;2022-08-19T11:10:18;33.42;;;21.52;;
14961;SDS011;56489;53.166;10.864;2022-08-19T11:12:47;36.45;;;24.60;;
14961;SDS011;56489;53.166;10.864;2022-08-19T11:15:14;35.75;;;23.92;;
14961;SDS011;56489;53.166;10.864;2022-08-19T11:17:41;35.88;;;25.25;;
14961;SDS011;56489;53.166;10.864;2022-08-19T11:20:10;37.00;;;23.65;;
14961;SDS011;56489;53.166;10.864;2022-08-19T11:22:38;38.00;;;26.85;;
14961;SDS011;56489;53.166;10.864;2022-08-19T11:25:08;34.97;;;24.52;;
14961;SDS011;56489;53.166;10.864;2022-08-19T11:27:40;38.17;;;24.38;;
14961;SDS011;56489;53.166;10.864;2022-08-19T11:30:12;40.35;;;25.38;;
14961;SDS011;56489;53.166;10.864;2022-08-19T11:32:40;37.22;;;24.48;;
14961;SDS011;56489;53.166;10.864;2022-08-19T11:35:13;35.38;;;25.25;;
14961;SDS011;56489;53.166;10.864;2022-08-19T11:37:40;40.90;;;27.42;;
14961;SDS011;56489;53.166;10.864;2022-08-19T11:40:07;37.05;;;24.20;;
14961;SDS011;56489;53.166;10.864;2022-08-19T11:42:34;39.83;;;25.85;;
14961;SDS011;56489;53.166;10.864;2022-08-19T11:45:19;37.33;;;22.98;;
14961;SDS011;56489;53.166;10.864;2022-08-19T11:47:46;37.35;;;22.27;;
14961;SDS011;56489;53.166;10.864;2022-08-19T11:50:14;39.55;;;23.30;;
14961;SDS011;56489;53.166;10.864;2022-08-19T11:52:42;34.72;;;23.05;;
14961;SDS011;56489;53.166;10.864;2022-08-19T11:55:10;36.72;;;22.77;;
14961;SDS011;56489;53.166;10.864;2022-08-19T11:57:38;33.40;;;23.42;;
14961;SDS011;56489;53.166;10.864;2022-08-19T12:00:07;30.63;;;21.13;;
14961;SDS011;56489;53.166;10.864;2022-08-19T12:02:35;31.65;;;20.98;;
14961;SDS011;56489;53.166;10.864;2022-08-19T12:05:02;30.88;;;21.50;;
14961;SDS011;56489;53.166;10.864;2022-08-19T12:07:32;34.90;;;23.80;;
14961;SDS011;56489;53.166;10.864;2022-08-19T12:10:00;33.50;;;21.55;;
14961;SDS011;56489;53.166;10.864;2022-08-19T12:12:28;29.60;;;20.80;;
14961;SDS011;56489;53.166;10.864;2022-08-19T12:14:55;24.38;;;19.27;;
14961;SDS011;56489;53.166;10.864;2022-08-19T12:17:24;25.42;;;18.80;;
14961;SDS011;56489;53.166;10.864;2022-08-19T12:19:52;25.85;;;19.90;;
14961;SDS011;56489;53.166;10.864;2022-08-19T12:22:19;24.67;;;18.38;;
14961;SDS011;56489;53.166;10.864;2022-08-19T12:24:47;25.98;;;17.73;;
14961;SDS011;56489;53.166;10.864;2022-08-19T12:27:16;21.30;;;17.65;;
14961;SDS011;56489;53.166;10.864;2022-08-19T12:30:03;22.60;;;16.10;;
14961;SDS011;56489;53.166;10.864;2022-08-19T12:32:31;23.80;;;17.90;;
14961;SDS011;56489;53.166;10.864;2022-08-19T12:34:57;22.65;;;16.35;;
14961;SDS011;56489;53.166;10.864;2022-08-19T12:37:24;22.15;;;16.48;;
14961;SDS011;56489;53.166;10.864;2022-08-19T12:39:50;22.02;;;16.05;;
14961;SDS011;56489;53.166;10.864;2022-08-19T12:42:17;22.40;;;17.50;;
14961;SDS011;56489;53.166;10.864;2022-08-19T12:44:44;22.08;;;16.23;;
14961;SDS011;56489;53.166;10.864;2022-08-19T12:47:11;21.63;;;17.20;;
14961;SDS011;56489;53.166;10.864;2022-08-19T12:49:41;21.45;;;16.38;;
14961;SDS011;56489;53.166;10.864;2022-08-19T12:52:20;23.13;;;17.10;;
14961;SDS011;56489;53.166;10.864;2022-08-19T12:54:51;25.83;;;18.55;;
14961;SDS011;56489;53.166;10.864;2022-08-19T12:57:21;24.30;;;18.27;;
14961;SDS011;56489;53.166;10.864;2022-08-19T12:59:58;19.52;;;16.35;;
14961;SDS011;56489;53.166;10.864;2022-08-19T13:02:26;23.75;;;16.25;;
14961;SDS011;56489;53.166;10.864;2022-08-19T13:04:52;21.02;;;16.13;;
14961;SDS011;56489;53.166;10.864;2022-08-19T13:07:19;19.92;;;15.95;;
14961;SDS011;56489;53.166;10.864;2022-08-19T13:09:46;22.80;;;17.42;;
14961;SDS011;56489;53.166;10.864;2022-08-19T13:12:12;23.23;;;19.02;;
14961;SDS011;56489;53.166;10.864;2022-08-19T13:14:39;28.33;;;20.67;;
14961;SDS011;56489;53.166;10.864;2022-08-19T13:17:06;26.40;;;18.70;;
14961;SDS011;56489;53.166;10.864;2022-08-19T13:19:35;25.45;;;19.52;;
14961;SDS011;56489;53.166;10.864;2022-08-19T13:22:03;25.38;;;20.08;;
14961;SDS011;56489;53.166;10.864;2022-08-19T13:24:35;23.17;;;17.98;;
14961;SDS011;56489;53.166;10.864;2022-08-19T13:27:02;26.08;;;19.70;;
14961;SDS011;56489;53.166;10.864;2022-08-19T13:29:29;26.65;;;20.38;;
14961;SDS011;56489;53.166;10.864;2022-08-19T13:32:14;25.40;;;19.65;;
14961;SDS011;56489;53.166;10.864;2022-08-19T13:35:01;25.98;;;19.88;;
14961;SDS011;56489;53.166;10.864;2022-08-19T13:37:28;26.98;;;19.42;;
14961;SDS011;56489;53.166;10.864;2022-08-19T13:40:08;30.25;;;20.38;;
14961;SDS011;56489;53.166;10.864;2022-08-19T13:42:38;31.52;;;21.10;;
14961;SDS011;56489;53.166;10.864;2022-08-19T13:45:06;30.17;;;21.33;;
14961;SDS011;56489;53.166;10.864;2022-08-19T13:47:34;26.35;;;20.20;;
14961;SDS011;56489;53.166;10.864;2022-08-19T13:50:03;32.80;;;22.15;;
14961;SDS011;56489;53.166;10.864;2022-08-19T13:52:30;32.22;;;22.77;;
14961;SDS011;56489;53.166;10.864;2022-08-19T13:54:57;30.90;;;22.20;;
14961;SDS011;56489;53.166;10.864;2022-08-19T13:57:24;34.65;;;23.77;;
14961;SDS011;56489;53.166;10.864;2022-08-19T13:59:50;34.50;;;22.85;;
14961;SDS011;56489;53.166;10.864;2022-08-19T14:02:17;30.50;;;21.60;;
14961;SDS011;56489;53.166;10.864;2022-08-19T14:04:44;28.75;;;21.92;;
14961;SDS011;56489;53.166;10.864;2022-08-19T14:07:10;33.08;;;22.90;;
14961;SDS011;56489;53.166;10.864;2022-08-19T14:09:37;31.13;;;22.90;;
14961;SDS011;56489;53.166;10.864;2022-08-19T14:12:04;27.90;;;20.30;;
14961;SDS011;56489;53.166;10.864;2022-08-19T14:14:30;32.42;;;23.20;;
14961;SDS011;56489;53.166;10.864;2022-08-19T14:16:57;26.38;;;20.27;;
14961;SDS011;56489;53.166;10.864;2022-08-19T14:19:24;28.58;;;20.10;;
14961;SDS011;56489;53.166;10.864;2022-08-19T14:21:55;21.80;;;18.90;;
14961;SDS011;56489;53.166;10.864;2022-08-19T14:24:23;22.58;;;17.70;;
14961;SDS011;56489;53.166;10.864;2022-08-19T14:26:50;24.38;;;16.85;;
14961;SDS011;56489;53.166;10.864;2022-08-19T14:29:17;21.00;;;16.10;;
14961;SDS011;56489;53.166;10.864;2022-08-19T14:31:43;20.67;;;15.82;;
14961;SDS011;56489;53.166;10.864;2022-08-19T14:34:10;22.80;;;17.58;;